createdAt,value
2022-08-08T00:00:53.211Z,59.04
2022-08-08T00:04:36.335Z,59.27
2022-08-08T00:08:49.214Z,59.15
2022-08-08T00:13:00.914Z,58.90
2022-08-08T00:17:23.512Z,59.17
2022-08-08T00:21:43.447Z,59.09
2022-08-08T00:25:54.191Z,59.06
2022-08-08T00:30:01.659Z,59.15
2022-08-08T00:34:46.370Z,59.24
2022-08-08T00:38:55.968Z,58.89
2022-08-08T00:43:29.692Z,58.99
2022-08-08T00:48:33.849Z,58.61
2022-08-08T00:52:53.982Z,58.53
2022-08-08T00:57:29.595Z,58.83
2022-08-08T01:02:02.013Z,58.98
2022-08-08T01:06:47.627Z,58.53
2022-08-08T01:11:27.848Z,58.45
2022-08-08T01:16:04.618Z,57.88
2022-08-08T01:20:39.823Z,57.74
2022-08-08T01:25:40.039Z,57.68
2022-08-08T01:30:13.289Z,57.64
2022-08-08T01:35:11.045Z,57.92
2022-08-08T01:39:41.934Z,57.76
2022-08-08T01:43:53.508Z,57.87
2022-08-08T01:48:23.525Z,57.73
2022-08-08T01:54:04.109Z,57.65
2022-08-08T01:58:04.164Z,57.42
2022-08-08T02:02:08.330Z,58.07
2022-08-08T02:06:36.617Z,58.04
2022-08-08T02:11:01.525Z,58.32
2022-08-08T02:15:12.997Z,58.35
2022-08-08T02:20:08.370Z,58.24
2022-08-08T02:23:59.187Z,58.47
2022-08-08T02:28:10.727Z,58.38
2022-08-08T02:32:49.314Z,58.72
2022-08-08T02:37:02.233Z,58.82
2022-08-08T02:42:04.180Z,58.89
2022-08-08T02:46:31.730Z,58.67
2022-08-08T02:51:14.992Z,58.89
2022-08-08T02:56:03.334Z,58.81
2022-08-08T03:00:31.356Z,58.84
2022-08-08T03:05:17.526Z,58.83
2022-08-08T03:09:53.047Z,58.52
2022-08-08T03:16:01.577Z,58.85
2022-08-08T03:18:52.362Z,58.85
2022-08-08T03:23:00.465Z,58.86
2022-08-08T03:27:17.370Z,58.87
2022-08-08T03:32:06.207Z,59.04
2022-08-08T03:36:04.856Z,59.26
2022-08-08T03:40:29.475Z,59.33
2022-08-08T03:44:38.618Z,59.26
2022-08-08T03:49:56.142Z,59.41
2022-08-08T03:53:23.970Z,59.39
2022-08-08T03:58:09.419Z,59.25
2022-08-08T04:02:36.513Z,59.43
2022-08-08T04:06:42.560Z,59.27
2022-08-08T04:10:48.746Z,59.18
2022-08-08T04:15:07.088Z,59.09
2022-08-08T04:19:24.963Z,59.06
2022-08-08T04:24:12.172Z,59.03
2022-08-08T04:28:34.306Z,59.07
2022-08-08T04:32:30.533Z,59.08
2022-08-08T04:36:34.903Z,58.93
2022-08-08T04:40:38.958Z,59.10
2022-08-08T04:44:55.699Z,58.94
2022-08-08T04:49:00.533Z,58.88
2022-08-08T04:53:13.898Z,58.63
2022-08-08T04:57:28.308Z,58.60
2022-08-08T05:01:35.598Z,58.67
2022-08-08T05:05:56.089Z,58.46
2022-08-08T05:10:00.114Z,58.36
2022-08-08T05:14:08.745Z,58.28
2022-08-08T05:18:17.294Z,58.21
2022-08-08T05:22:23.258Z,57.80
2022-08-08T05:26:27.656Z,57.85
2022-08-08T05:30:32.119Z,57.92
2022-08-08T05:34:43.470Z,57.89
2022-08-08T05:38:53.033Z,57.49
2022-08-08T05:43:02.955Z,57.48
2022-08-08T05:47:22.723Z,57.06
2022-08-08T05:51:26.407Z,57.12
2022-08-08T05:56:09.764Z,57.02
2022-08-08T06:00:25.357Z,56.49
2022-08-08T06:04:30.651Z,56.85
2022-08-08T06:08:38.782Z,56.30
2022-08-08T06:12:59.147Z,56.17
2022-08-08T06:17:07.343Z,55.86
2022-08-08T06:21:32.602Z,55.38
2022-08-08T06:26:38.397Z,55.20
2022-08-08T06:30:11.965Z,55.42
2022-08-08T06:34:31.493Z,55.27
2022-08-08T06:38:39.485Z,55.03
2022-08-08T06:42:55.577Z,54.53
2022-08-08T06:47:07.409Z,54.64
2022-08-08T06:51:15.806Z,54.34
2022-08-08T06:55:21.729Z,53.95
2022-08-08T06:59:25.496Z,53.53
2022-08-08T07:04:39.898Z,53.67
2022-08-08T07:08:19.728Z,52.98
2022-08-08T07:12:31.770Z,52.94
2022-08-08T07:16:53.829Z,53.08
2022-08-08T07:21:05.273Z,52.63
2022-08-08T07:25:29.422Z,52.77
2022-08-08T07:30:00.011Z,52.16
2022-08-08T07:34:03.276Z,52.66
2022-08-08T07:38:20.541Z,51.99
2022-08-08T07:42:38.825Z,51.98
2022-08-08T07:46:46.210Z,51.10
2022-08-08T07:50:58.780Z,51.53
2022-08-08T07:55:12.039Z,51.69
2022-08-08T07:59:19.416Z,52.82
2022-08-08T08:03:41.184Z,55.25
2022-08-08T08:07:53.154Z,57.69
2022-08-08T08:12:01.131Z,59.31
2022-08-08T08:16:17.014Z,60.19
2022-08-08T08:20:30.344Z,61.08
2022-08-08T08:24:36.742Z,60.95
2022-08-08T08:28:43.502Z,61.37
2022-08-08T08:32:51.816Z,62.21
2022-08-08T08:36:59.478Z,63.30
2022-08-08T08:41:06.242Z,64.56
2022-08-08T08:45:23.857Z,65.25
2022-08-08T08:49:34.764Z,65.87
2022-08-08T08:53:55.408Z,66.62
2022-08-08T08:58:07.017Z,67.38
2022-08-08T09:02:21.823Z,68.08
2022-08-08T09:06:34.287Z,68.56
2022-08-08T09:10:42.280Z,68.96
2022-08-08T09:14:55.641Z,69.32
2022-08-08T09:19:03.494Z,69.86
2022-08-08T09:23:10.576Z,69.81
2022-08-08T09:27:22.832Z,70.06
2022-08-08T09:31:55.914Z,69.65
2022-08-08T09:36:03.544Z,69.44
2022-08-08T09:40:10.553Z,69.74
2022-08-08T09:44:29.757Z,70.12
2022-08-08T09:48:42.878Z,70.66
2022-08-08T09:52:57.680Z,70.83
2022-08-08T09:57:06.261Z,71.19
2022-08-08T10:02:02.230Z,70.60
2022-08-08T10:05:47.322Z,70.70
2022-08-08T10:10:00.434Z,70.39
2022-08-08T10:14:07.410Z,70.34
2022-08-08T10:18:33.542Z,69.14
2022-08-08T10:22:54.897Z,69.89
2022-08-08T10:27:01.609Z,69.53
2022-08-08T10:31:47.280Z,69.59
2022-08-08T10:36:08.923Z,68.91
2022-08-08T10:40:20.909Z,69.78
2022-08-08T10:44:30.775Z,70.00
2022-08-08T10:48:55.903Z,70.22
2022-08-08T10:53:03.397Z,70.64
2022-08-08T10:57:10.690Z,71.23
2022-08-08T11:01:16.802Z,71.18
2022-08-08T11:05:23.185Z,71.24
2022-08-08T11:09:26.688Z,70.99
2022-08-08T11:13:52.162Z,71.13
2022-08-08T11:18:05.793Z,70.92
2022-08-08T11:22:14.300Z,70.97
2022-08-08T11:26:20.919Z,70.89
2022-08-08T11:30:34.186Z,71.13
2022-08-08T11:35:29.560Z,71.39
2022-08-08T11:39:15.562Z,71.41
2022-08-08T11:43:19.556Z,71.22
2022-08-08T11:47:25.735Z,71.53
2022-08-08T11:51:50.318Z,71.94
2022-08-08T11:55:55.430Z,71.79
2022-08-08T12:00:02.541Z,71.96
2022-08-08T12:04:19.714Z,72.04
2022-08-08T12:08:35.174Z,72.33
2022-08-08T12:12:45.861Z,72.03
2022-08-08T12:16:53.274Z,71.67
2022-08-08T12:20:59.826Z,71.66
2022-08-08T12:25:05.172Z,72.05
2022-08-08T12:29:25.917Z,71.94
2022-08-08T12:34:02.115Z,72.18
2022-08-08T12:38:09.145Z,72.32
2022-08-08T12:42:21.546Z,72.05
2022-08-08T12:46:26.668Z,72.26
2022-08-08T12:50:40.273Z,72.35
2022-08-08T12:54:49.976Z,72.30
2022-08-08T12:58:56.426Z,72.34
2022-08-08T13:03:01.036Z,72.25
2022-08-08T13:07:07.482Z,72.47
2022-08-08T13:12:18.063Z,72.39
2022-08-08T13:16:21.437Z,72.34
2022-08-08T13:20:27.207Z,71.76
2022-08-08T13:24:42.508Z,71.33
2022-08-08T13:28:48.866Z,71.07
2022-08-08T13:32:56.541Z,70.69
2022-08-08T13:37:01.039Z,70.21
2022-08-08T13:41:04.528Z,70.36
2022-08-08T13:45:10.790Z,70.36
2022-08-08T13:50:35.129Z,70.93
2022-08-08T13:53:59.878Z,70.88
2022-08-08T13:58:08.796Z,70.41
2022-08-08T14:02:22.283Z,70.45
2022-08-08T14:06:46.464Z,69.84
2022-08-08T14:10:50.913Z,70.08
2022-08-08T14:14:54.211Z,69.96
2022-08-08T14:19:00.583Z,69.97
2022-08-08T14:23:21.243Z,70.07
2022-08-08T14:27:37.556Z,69.91
2022-08-08T14:32:10.067Z,70.13
2022-08-08T14:36:13.852Z,69.99
2022-08-08T14:40:23.879Z,70.13
2022-08-08T14:44:35.126Z,69.82
2022-08-08T14:48:52.607Z,69.79
2022-08-08T14:53:04.339Z,69.67
2022-08-08T14:57:08.767Z,69.33
2022-08-08T15:01:23.829Z,69.21
2022-08-08T15:05:42.653Z,69.07
2022-08-08T15:09:56.515Z,68.79
2022-08-08T15:14:03.168Z,68.54
2022-08-08T15:18:06.980Z,68.32
2022-08-08T15:22:23.314Z,67.85
2022-08-08T15:26:28.903Z,67.73
2022-08-08T15:30:34.076Z,67.41
2022-08-08T15:34:37.066Z,67.53
2022-08-08T15:38:50.259Z,67.05
2022-08-08T15:42:53.852Z,67.00
2022-08-08T15:46:58.318Z,66.79
2022-08-08T15:51:06.549Z,66.73
2022-08-08T15:55:11.232Z,67.02
2022-08-08T15:59:15.951Z,67.02
2022-08-08T16:03:21.102Z,67.17
2022-08-08T16:07:51.958Z,67.05
2022-08-08T16:13:15.208Z,66.80
2022-08-08T16:16:17.981Z,66.97
2022-08-08T16:20:23.288Z,67.07
2022-08-08T16:24:27.146Z,66.62
2022-08-08T16:28:35.665Z,66.81
2022-08-08T16:32:40.095Z,66.68
2022-08-08T16:36:49.471Z,67.28
2022-08-08T16:40:53.819Z,67.18
2022-08-08T16:44:59.507Z,67.36
2022-08-08T16:49:02.992Z,67.21
2022-08-08T16:55:04.483Z,67.25
2022-08-08T16:58:15.728Z,67.11
2022-08-08T17:01:54.176Z,66.39
2022-08-08T17:05:58.143Z,65.51
2022-08-08T17:10:02.903Z,65.16
2022-08-08T17:14:18.157Z,65.06
2022-08-08T17:18:23.093Z,65.24
2022-08-08T17:22:39.300Z,64.42
2022-08-08T17:26:46.842Z,64.89
2022-08-08T17:30:52.655Z,65.10
2022-08-08T17:35:53.340Z,65.92
2022-08-08T17:39:45.755Z,65.65
2022-08-08T17:44:00.455Z,66.11
2022-08-08T17:48:10.078Z,65.74
2022-08-08T17:52:18.112Z,64.44
2022-08-08T17:56:21.352Z,63.56
2022-08-08T18:00:31.786Z,63.40
2022-08-08T18:04:37.179Z,63.71
2022-08-08T18:08:55.411Z,64.01
2022-08-08T18:12:59.087Z,63.73
2022-08-08T18:17:06.632Z,63.57
2022-08-08T18:21:34.472Z,64.05
2022-08-08T18:25:44.580Z,63.49
2022-08-08T18:29:48.574Z,63.48
2022-08-08T18:34:18.824Z,63.58
2022-08-08T18:38:19.262Z,63.07
2022-08-08T18:42:22.514Z,62.83
2022-08-08T18:46:55.415Z,62.88
2022-08-08T18:50:58.322Z,62.76
2022-08-08T18:55:10.292Z,62.44
2022-08-08T18:59:14.826Z,61.87
2022-08-08T19:03:18.059Z,60.94
2022-08-08T19:07:29.777Z,60.52
2022-08-08T19:11:36.367Z,60.28
2022-08-08T19:15:39.458Z,59.52
2022-08-08T19:19:44.250Z,59.61
2022-08-08T19:24:38.955Z,59.40
2022-08-08T19:28:32.576Z,59.23
2022-08-08T19:32:39.751Z,59.67
2022-08-08T19:36:45.434Z,59.54
2022-08-08T19:40:56.075Z,59.38
2022-08-08T19:45:07.173Z,59.12
2022-08-08T19:49:10.824Z,58.60
2022-08-08T19:53:50.762Z,58.46
2022-08-08T19:57:38.435Z,58.47
2022-08-08T20:02:01.843Z,58.42
2022-08-08T20:06:15.823Z,58.29
2022-08-08T20:10:20.419Z,57.93
2022-08-08T20:14:34.177Z,57.72
2022-08-08T20:18:53.098Z,57.78
2022-08-08T20:22:57.756Z,57.70
2022-08-08T20:27:01.725Z,57.80
2022-08-08T20:31:07.096Z,57.71
2022-08-08T20:35:14.136Z,57.61
2022-08-08T20:39:19.669Z,57.46
2022-08-08T20:43:42.992Z,57.43
2022-08-08T20:47:48.638Z,57.57
2022-08-08T20:52:01.052Z,57.82
2022-08-08T20:56:04.362Z,58.02
2022-08-08T21:00:09.372Z,57.86
2022-08-08T21:04:15.459Z,57.86
2022-08-08T21:08:36.262Z,57.68
2022-08-08T21:12:45.997Z,58.34
2022-08-08T21:16:49.367Z,58.02
2022-08-08T21:20:55.318Z,58.08
2022-08-08T21:24:58.803Z,58.39
2022-08-08T21:29:02.704Z,58.40
2022-08-08T21:33:08.166Z,58.88
2022-08-08T21:37:19.078Z,58.58
2022-08-08T21:41:38.480Z,58.72
2022-08-08T21:48:07.862Z,58.76
2022-08-08T21:50:10.523Z,58.70
2022-08-08T21:54:53.282Z,59.00
2022-08-08T21:58:40.694Z,58.94
2022-08-08T22:02:47.816Z,59.12
2022-08-08T22:06:51.086Z,59.13
2022-08-08T22:10:56.508Z,59.29
2022-08-08T22:15:00.212Z,59.36
2022-08-08T22:19:08.948Z,59.51
2022-08-08T22:23:19.347Z,59.85
2022-08-08T22:27:56.002Z,60.25
2022-08-08T22:31:58.234Z,60.18
2022-08-08T22:36:12.310Z,59.93
2022-08-08T22:40:16.996Z,60.23
2022-08-08T22:44:22.039Z,60.48
2022-08-08T22:48:27.076Z,60.43
2022-08-08T22:52:33.412Z,60.43
2022-08-08T22:56:38.988Z,60.86
2022-08-08T23:00:44.315Z,60.83
2022-08-08T23:04:58.578Z,60.99
2022-08-08T23:09:09.611Z,60.85
2022-08-08T23:13:13.119Z,61.10
2022-08-08T23:17:18.021Z,60.99
2022-08-08T23:21:21.152Z,61.21
2022-08-08T23:25:24.607Z,61.33
2022-08-08T23:29:29.792Z,61.38
2022-08-08T23:34:18.750Z,61.37
2022-08-08T23:38:03.258Z,61.64
2022-08-08T23:42:08.806Z,61.60
2022-08-08T23:49:04.478Z,61.65
2022-08-08T23:50:37.073Z,61.83
2022-08-08T23:55:00.274Z,61.82
2022-08-08T23:59:16.937Z,61.82
